sensor_id;sensor_type;location;lat;lon;timestamp;P1;durP1;ratioP1;P2;durP2;ratioP2
19016;SDS011;9641;51.494;6.670;2023-04-01T00:00:22;3.17;;;1.60;;
19016;SDS011;9641;51.494;6.670;2023-04-01T00:02:49;3.77;;;1.80;;
19016;SDS011;9641;51.494;6.670;2023-04-01T00:05:16;4.90;;;1.90;;
19016;SDS011;9641;51.494;6.670;2023-04-01T00:07:43;6.90;;;1.73;;
19016;SDS011;9641;51.494;6.670;2023-04-01T00:10:11;3.67;;;1.53;;
19016;SDS011;9641;51.494;6.670;2023-04-01T00:12:40;3.20;;;2.10;;
19016;SDS011;9641;51.494;6.670;2023-04-01T00:15:07;9.57;;;1.77;;
19016;SDS011;9641;51.494;6.670;2023-04-01T00:17:36;5.57;;;1.93;;
19016;SDS011;9641;51.494;6.670;2023-04-01T00:20:03;2.80;;;1.67;;
19016;SDS011;9641;51.494;6.670;2023-04-01T00:22:32;5.20;;;1.80;;
19016;SDS011;9641;51.494;6.670;2023-04-01T00:24:59;4.00;;;1.40;;
19016;SDS011;9641;51.494;6.670;2023-04-01T00:27:27;7.77;;;1.93;;
19016;SDS011;9641;51.494;6.670;2023-04-01T00:29:55;3.13;;;1.93;;
19016;SDS011;9641;51.494;6.670;2023-04-01T00:32:22;3.60;;;1.60;;
19016;SDS011;9641;51.494;6.670;2023-04-01T00:34:50;2.63;;;1.47;;
19016;SDS011;9641;51.494;6.670;2023-04-01T00:37:18;7.27;;;1.40;;
19016;SDS011;9641;51.494;6.670;2023-04-01T00:39:46;2.50;;;1.43;;
19016;SDS011;9641;51.494;6.670;2023-04-01T00:42:12;3.43;;;2.07;;
19016;SDS011;9641;51.494;6.670;2023-04-01T00:44:40;6.70;;;1.67;;
19016;SDS011;9641;51.494;6.670;2023-04-01T00:47:08;6.83;;;1.60;;
19016;SDS011;9641;51.494;6.670;2023-04-01T00:49:36;1.43;;;1.33;;
19016;SDS011;9641;51.494;6.670;2023-04-01T00:52:06;4.43;;;1.30;;
19016;SDS011;9641;51.494;6.670;2023-04-01T00:54:36;4.73;;;1.53;;
19016;SDS011;9641;51.494;6.670;2023-04-01T00:57:05;4.43;;;1.33;;
19016;SDS011;9641;51.494;6.670;2023-04-01T00:59:37;1.53;;;1.37;;
19016;SDS011;9641;51.494;6.670;2023-04-01T01:02:10;1.63;;;1.30;;
19016;SDS011;9641;51.494;6.670;2023-04-01T01:04:38;1.50;;;1.40;;
19016;SDS011;9641;51.494;6.670;2023-04-01T01:07:09;2.97;;;1.47;;
19016;SDS011;9641;51.494;6.670;2023-04-01T01:09:45;3.73;;;1.50;;
19016;SDS011;9641;51.494;6.670;2023-04-01T01:12:20;3.27;;;1.27;;
19016;SDS011;9641;51.494;6.670;2023-04-01T01:14:53;2.83;;;1.40;;
19016;SDS011;9641;51.494;6.670;2023-04-01T01:17:29;1.33;;;1.23;;
19016;SDS011;9641;51.494;6.670;2023-04-01T01:20:13;3.70;;;1.50;;
19016;SDS011;9641;51.494;6.670;2023-04-01T01:23:15;2.53;;;1.40;;
19016;SDS011;9641;51.494;6.670;2023-04-01T01:26:28;2.83;;;1.40;;
19016;SDS011;9641;51.494;6.670;2023-04-01T01:29:08;5.37;;;1.20;;
19016;SDS011;9641;51.494;6.670;2023-04-01T01:31:46;4.03;;;2.20;;
19016;SDS011;9641;51.494;6.670;2023-04-01T01:34:19;2.27;;;1.40;;
19016;SDS011;9641;51.494;6.670;2023-04-01T01:36:57;2.07;;;1.40;;
19016;SDS011;9641;51.494;6.670;2023-04-01T01:39:30;1.50;;;1.40;;
19016;SDS011;9641;51.494;6.670;2023-04-01T01:42:00;4.57;;;1.80;;
19016;SDS011;9641;51.494;6.670;2023-04-01T01:44:30;3.27;;;1.50;;
19016;SDS011;9641;51.494;6.670;2023-04-01T01:46:59;11.80;;;2.00;;
19016;SDS011;9641;51.494;6.670;2023-04-01T01:49:27;3.00;;;1.60;;
19016;SDS011;9641;51.494;6.670;2023-04-01T01:51:56;3.33;;;1.50;;
19016;SDS011;9641;51.494;6.670;2023-04-01T01:54:24;1.77;;;1.53;;
19016;SDS011;9641;51.494;6.670;2023-04-01T01:57:03;1.90;;;1.70;;
19016;SDS011;9641;51.494;6.670;2023-04-01T01:59:34;2.77;;;1.50;;
19016;SDS011;9641;51.494;6.670;2023-04-01T02:02:03;1.20;;;1.20;;
19016;SDS011;9641;51.494;6.670;2023-04-01T02:04:33;1.10;;;1.10;;
19016;SDS011;9641;51.494;6.670;2023-04-01T02:07:03;1.30;;;1.03;;
19016;SDS011;9641;51.494;6.670;2023-04-01T02:09:33;3.37;;;1.23;;
19016;SDS011;9641;51.494;6.670;2023-04-01T02:12:02;2.90;;;1.30;;
19016;SDS011;9641;51.494;6.670;2023-04-01T02:14:37;1.70;;;1.23;;
19016;SDS011;9641;51.494;6.670;2023-04-01T02:17:09;3.27;;;1.50;;
19016;SDS011;9641;51.494;6.670;2023-04-01T02:19:38;1.73;;;1.27;;
19016;SDS011;9641;51.494;6.670;2023-04-01T02:22:10;1.70;;;1.30;;
19016;SDS011;9641;51.494;6.670;2023-04-01T02:24:40;7.23;;;1.47;;
19016;SDS011;9641;51.494;6.670;2023-04-01T02:27:08;2.83;;;1.47;;
19016;SDS011;9641;51.494;6.670;2023-04-01T02:29:36;4.57;;;1.50;;
19016;SDS011;9641;51.494;6.670;2023-04-01T02:32:06;3.13;;;2.20;;
19016;SDS011;9641;51.494;6.670;2023-04-01T02:34:34;3.50;;;1.60;;
19016;SDS011;9641;51.494;6.670;2023-04-01T02:37:02;3.87;;;1.30;;
19016;SDS011;9641;51.494;6.670;2023-04-01T02:39:30;1.77;;;1.20;;
19016;SDS011;9641;51.494;6.670;2023-04-01T02:41:57;3.50;;;1.63;;
19016;SDS011;9641;51.494;6.670;2023-04-01T02:44:25;1.33;;;1.23;;
19016;SDS011;9641;51.494;6.670;2023-04-01T02:46:51;2.67;;;1.20;;
19016;SDS011;9641;51.494;6.670;2023-04-01T02:49:18;1.40;;;1.30;;
19016;SDS011;9641;51.494;6.670;2023-04-01T02:51:45;1.70;;;1.50;;
19016;SDS011;9641;51.494;6.670;2023-04-01T02:54:12;1.80;;;1.63;;
19016;SDS011;9641;51.494;6.670;2023-04-01T02:56:42;1.70;;;1.60;;
19016;SDS011;9641;51.494;6.670;2023-04-01T02:59:09;4.20;;;2.00;;
19016;SDS011;9641;51.494;6.670;2023-04-01T03:01:35;2.30;;;2.10;;
19016;SDS011;9641;51.494;6.670;2023-04-01T03:04:03;3.27;;;2.80;;
19016;SDS011;9641;51.494;6.670;2023-04-01T03:06:30;3.10;;;2.33;;
19016;SDS011;9641;51.494;6.670;2023-04-01T03:08:57;4.63;;;3.30;;
19016;SDS011;9641;51.494;6.670;2023-04-01T03:11:25;4.07;;;2.97;;
19016;SDS011;9641;51.494;6.670;2023-04-01T03:13:53;3.90;;;3.27;;
19016;SDS011;9641;51.494;6.670;2023-04-01T03:16:20;3.57;;;3.27;;
19016;SDS011;9641;51.494;6.670;2023-04-01T03:18:48;9.53;;;4.03;;
19016;SDS011;9641;51.494;6.670;2023-04-01T03:21:19;6.43;;;4.53;;
19016;SDS011;9641;51.494;6.670;2023-04-01T03:23:48;7.03;;;3.90;;
19016;SDS011;9641;51.494;6.670;2023-04-01T03:26:15;4.97;;;3.60;;
19016;SDS011;9641;51.494;6.670;2023-04-01T03:28:43;5.97;;;3.90;;
19016;SDS011;9641;51.494;6.670;2023-04-01T03:31:12;4.73;;;4.30;;
19016;SDS011;9641;51.494;6.670;2023-04-01T03:33:47;7.97;;;4.73;;
19016;SDS011;9641;51.494;6.670;2023-04-01T03:36:13;7.10;;;5.47;;
19016;SDS011;9641;51.494;6.670;2023-04-01T03:38:40;7.53;;;5.13;;
19016;SDS011;9641;51.494;6.670;2023-04-01T03:41:11;6.90;;;4.53;;
19016;SDS011;9641;51.494;6.670;2023-04-01T03:43:39;5.53;;;4.63;;
19016;SDS011;9641;51.494;6.670;2023-04-01T03:46:06;8.57;;;4.20;;
19016;SDS011;9641;51.494;6.670;2023-04-01T03:48:34;5.60;;;3.80;;
19016;SDS011;9641;51.494;6.670;2023-04-01T03:51:01;7.27;;;4.00;;
19016;SDS011;9641;51.494;6.670;2023-04-01T03:53:29;7.47;;;4.70;;
19016;SDS011;9641;51.494;6.670;2023-04-01T03:56:02;4.53;;;3.77;;
19016;SDS011;9641;51.494;6.670;2023-04-01T03:58:30;6.33;;;3.70;;
19016;SDS011;9641;51.494;6.670;2023-04-01T04:00:58;5.80;;;3.43;;
19016;SDS011;9641;51.494;6.670;2023-04-01T04:03:25;4.07;;;3.30;;
19016;SDS011;9641;51.494;6.670;2023-04-01T04:05:53;6.10;;;3.63;;
19016;SDS011;9641;51.494;6.670;2023-04-01T04:08:21;5.20;;;3.90;;
19016;SDS011;9641;51.494;6.670;2023-04-01T04:10:54;6.67;;;4.23;;
19016;SDS011;9641;51.494;6.670;2023-04-01T04:13:21;6.23;;;4.33;;
19016;SDS011;9641;51.494;6.670;2023-04-01T04:15:55;5.63;;;4.70;;
19016;SDS011;9641;51.494;6.670;2023-04-01T04:18:22;7.47;;;4.70;;
19016;SDS011;9641;51.494;6.670;2023-04-01T04:20:49;8.70;;;5.07;;
19016;SDS011;9641;51.494;6.670;2023-04-01T04:23:18;9.43;;;4.73;;
19016;SDS011;9641;51.494;6.670;2023-04-01T04:25:52;9.80;;;5.03;;
19016;SDS011;9641;51.494;6.670;2023-04-01T04:28:21;6.83;;;4.80;;
19016;SDS011;9641;51.494;6.670;2023-04-01T04:30:48;6.93;;;5.13;;
19016;SDS011;9641;51.494;6.670;2023-04-01T04:33:15;7.07;;;5.37;;
19016;SDS011;9641;51.494;6.670;2023-04-01T04:35:42;11.47;;;5.37;;
19016;SDS011;9641;51.494;6.670;2023-04-01T04:38:10;9.33;;;5.43;;
19016;SDS011;9641;51.494;6.670;2023-04-01T04:40:38;10.10;;;5.40;;
19016;SDS011;9641;51.494;6.670;2023-04-01T04:43:06;7.17;;;5.07;;
19016;SDS011;9641;51.494;6.670;2023-04-01T04:45:36;7.17;;;5.10;;
19016;SDS011;9641;51.494;6.670;2023-04-01T04:48:03;8.57;;;5.10;;
19016;SDS011;9641;51.494;6.670;2023-04-01T04:50:30;9.13;;;5.60;;
19016;SDS011;9641;51.494;6.670;2023-04-01T04:52:57;6.63;;;4.87;;
19016;SDS011;9641;51.494;6.670;2023-04-01T04:55:24;7.83;;;5.70;;
19016;SDS011;9641;51.494;6.670;2023-04-01T04:58:13;9.10;;;4.80;;
19016;SDS011;9641;51.494;6.670;2023-04-01T05:00:41;7.80;;;5.10;;
19016;SDS011;9641;51.494;6.670;2023-04-01T05:03:16;5.23;;;4.37;;
19016;SDS011;9641;51.494;6.670;2023-04-01T05:05:48;5.80;;;4.80;;
19016;SDS011;9641;51.494;6.670;2023-04-01T05:08:16;6.47;;;4.27;;
19016;SDS011;9641;51.494;6.670;2023-04-01T05:10:43;8.00;;;4.77;;
19016;SDS011;9641;51.494;6.670;2023-04-01T05:13:11;6.17;;;4.77;;
19016;SDS011;9641;51.494;6.670;2023-04-01T05:15:40;7.40;;;5.20;;
19016;SDS011;9641;51.494;6.670;2023-04-01T05:18:07;8.53;;;4.97;;
19016;SDS011;9641;51.494;6.670;2023-04-01T05:20:34;9.00;;;5.00;;
19016;SDS011;9641;51.494;6.670;2023-04-01T05:23:01;6.70;;;5.03;;
19016;SDS011;9641;51.494;6.670;2023-04-01T05:25:28;6.33;;;4.53;;
19016;SDS011;9641;51.494;6.670;2023-04-01T05:27:55;6.70;;;5.00;;
19016;SDS011;9641;51.494;6.670;2023-04-01T05:30:24;7.30;;;5.37;;
19016;SDS011;9641;51.494;6.670;2023-04-01T05:32:59;8.90;;;5.27;;
19016;SDS011;9641;51.494;6.670;2023-04-01T05:35:26;9.37;;;5.03;;
19016;SDS011;9641;51.494;6.670;2023-04-01T05:37:53;6.63;;;4.97;;
19016;SDS011;9641;51.494;6.670;2023-04-01T05:40:20;8.27;;;5.60;;
19016;SDS011;9641;51.494;6.670;2023-04-01T05:42:47;8.37;;;5.37;;
19016;SDS011;9641;51.494;6.670;2023-04-01T05:45:15;7.60;;;5.63;;
19016;SDS011;9641;51.494;6.670;2023-04-01T05:48:15;8.33;;;5.40;;
19016;SDS011;9641;51.494;6.670;2023-04-01T05:50:43;10.27;;;5.90;;
19016;SDS011;9641;51.494;6.670;2023-04-01T05:53:10;8.30;;;5.80;;
19016;SDS011;9641;51.494;6.670;2023-04-01T05:55:41;7.73;;;5.47;;
19016;SDS011;9641;51.494;6.670;2023-04-01T05:58:08;7.60;;;5.93;;
19016;SDS011;9641;51.494;6.670;2023-04-01T06:00:37;11.10;;;6.17;;
19016;SDS011;9641;51.494;6.670;2023-04-01T06:03:04;8.83;;;6.10;;
19016;SDS011;9641;51.494;6.670;2023-04-01T06:05:36;8.57;;;6.57;;
19016;SDS011;9641;51.494;6.670;2023-04-01T06:08:05;11.20;;;6.13;;
19016;SDS011;9641;51.494;6.670;2023-04-01T06:10:40;10.80;;;6.70;;
19016;SDS011;9641;51.494;6.670;2023-04-01T06:13:18;8.80;;;6.47;;
19016;SDS011;9641;51.494;6.670;2023-04-01T06:15:57;8.80;;;6.20;;
19016;SDS011;9641;51.494;6.670;2023-04-01T06:18:38;10.17;;;7.13;;
19016;SDS011;9641;51.494;6.670;2023-04-01T06:21:27;11.33;;;5.83;;
19016;SDS011;9641;51.494;6.670;2023-04-01T06:24:09;8.57;;;6.00;;
19016;SDS011;9641;51.494;6.670;2023-04-01T06:26:49;7.60;;;5.33;;
19016;SDS011;9641;51.494;6.670;2023-04-01T06:29:28;11.47;;;6.70;;
19016;SDS011;9641;51.494;6.670;2023-04-01T06:35:25;10.60;;;6.80;;
19016;SDS011;9641;51.494;6.670;2023-04-01T06:38:06;11.33;;;6.63;;
19016;SDS011;9641;51.494;6.670;2023-04-01T06:41:06;9.63;;;6.77;;
19016;SDS011;9641;51.494;6.670;2023-04-01T06:43:50;10.00;;;6.53;;
19016;SDS011;9641;51.494;6.670;2023-04-01T06:46:44;10.73;;;7.90;;
19016;SDS011;9641;51.494;6.670;2023-04-01T06:49:34;9.73;;;7.00;;
19016;SDS011;9641;51.494;6.670;2023-04-01T06:52:30;9.83;;;6.60;;
19016;SDS011;9641;51.494;6.670;2023-04-01T06:55:27;9.17;;;6.17;;
19016;SDS011;9641;51.494;6.670;2023-04-01T06:58:23;10.47;;;7.63;;
19016;SDS011;9641;51.494;6.670;2023-04-01T07:00:54;11.17;;;7.07;;
19016;SDS011;9641;51.494;6.670;2023-04-01T07:03:26;10.30;;;7.10;;
19016;SDS011;9641;51.494;6.670;2023-04-01T07:06:02;13.43;;;7.67;;
19016;SDS011;9641;51.494;6.670;2023-04-01T07:08:33;9.10;;;6.70;;
19016;SDS011;9641;51.494;6.670;2023-04-01T07:11:06;8.60;;;6.80;;
19016;SDS011;9641;51.494;6.670;2023-04-01T07:14:06;7.80;;;6.80;;
19016;SDS011;9641;51.494;6.670;2023-04-01T07:16:41;13.00;;;7.20;;
19016;SDS011;9641;51.494;6.670;2023-04-01T07:19:12;9.93;;;7.00;;
19016;SDS011;9641;51.494;6.670;2023-04-01T07:22:14;8.87;;;6.60;;
19016;SDS011;9641;51.494;6.670;2023-04-01T07:25:14;9.23;;;6.37;;
19016;SDS011;9641;51.494;6.670;2023-04-01T07:27:51;9.23;;;6.73;;
19016;SDS011;9641;51.494;6.670;2023-04-01T07:30:20;9.40;;;6.37;;
19016;SDS011;9641;51.494;6.670;2023-04-01T07:32:50;8.90;;;6.87;;
19016;SDS011;9641;51.494;6.670;2023-04-01T07:35:25;9.93;;;6.83;;
19016;SDS011;9641;51.494;6.670;2023-04-01T07:38:06;10.13;;;6.70;;
19016;SDS011;9641;51.494;6.670;2023-04-01T07:40:46;10.63;;;6.43;;
19016;SDS011;9641;51.494;6.670;2023-04-01T07:43:21;10.00;;;6.77;;
19016;SDS011;9641;51.494;6.670;2023-04-01T07:46:14;10.50;;;6.53;;
19016;SDS011;9641;51.494;6.670;2023-04-01T07:48:56;9.07;;;6.27;;
19016;SDS011;9641;51.494;6.670;2023-04-01T07:51:29;13.00;;;7.23;;
19016;SDS011;9641;51.494;6.670;2023-04-01T07:54:05;9.73;;;6.73;;
19016;SDS011;9641;51.494;6.670;2023-04-01T07:56:39;12.13;;;7.67;;
19016;SDS011;9641;51.494;6.670;2023-04-01T07:59:16;10.10;;;6.63;;
19016;SDS011;9641;51.494;6.670;2023-04-01T08:02:15;13.33;;;6.97;;
19016;SDS011;9641;51.494;6.670;2023-04-01T08:04:53;10.03;;;6.50;;
19016;SDS011;9641;51.494;6.670;2023-04-01T08:07:33;10.50;;;7.07;;
19016;SDS011;9641;51.494;6.670;2023-04-01T08:10:30;10.70;;;6.60;;
19016;SDS011;9641;51.494;6.670;2023-04-01T08:13:24;9.63;;;5.80;;
19016;SDS011;9641;51.494;6.670;2023-04-01T08:16:11;9.27;;;6.27;;
19016;SDS011;9641;51.494;6.670;2023-04-01T08:18:50;10.50;;;5.47;;
19016;SDS011;9641;51.494;6.670;2023-04-01T08:21:27;9.53;;;5.73;;
19016;SDS011;9641;51.494;6.670;2023-04-01T08:24:00;9.80;;;5.77;;
19016;SDS011;9641;51.494;6.670;2023-04-01T08:26:35;11.87;;;7.17;;
19016;SDS011;9641;51.494;6.670;2023-04-01T08:29:07;9.37;;;6.10;;
19016;SDS011;9641;51.494;6.670;2023-04-01T08:31:40;12.37;;;6.40;;
19016;SDS011;9641;51.494;6.670;2023-04-01T08:34:14;9.83;;;6.03;;
19016;SDS011;9641;51.494;6.670;2023-04-01T08:36:45;10.10;;;5.87;;
19016;SDS011;9641;51.494;6.670;2023-04-01T08:39:17;10.10;;;6.10;;
19016;SDS011;9641;51.494;6.670;2023-04-01T08:45:18;9.67;;;6.33;;
19016;SDS011;9641;51.494;6.670;2023-04-01T08:47:58;11.17;;;6.57;;
19016;SDS011;9641;51.494;6.670;2023-04-01T08:53:50;11.13;;;6.83;;
19016;SDS011;9641;51.494;6.670;2023-04-01T08:56:34;10.80;;;6.00;;
19016;SDS011;9641;51.494;6.670;2023-04-01T08:59:18;10.97;;;6.47;;
19016;SDS011;9641;51.494;6.670;2023-04-01T09:02:23;11.20;;;7.27;;
19016;SDS011;9641;51.494;6.670;2023-04-01T09:08:16;14.07;;;7.53;;
19016;SDS011;9641;51.494;6.670;2023-04-01T09:10:59;16.37;;;8.27;;
19016;SDS011;9641;51.494;6.670;2023-04-01T09:14:05;35.90;;;14.33;;
19016;SDS011;9641;51.494;6.670;2023-04-01T09:19:50;14.17;;;7.93;;
19016;SDS011;9641;51.494;6.670;2023-04-01T09:22:39;34.47;;;12.23;;
19016;SDS011;9641;51.494;6.670;2023-04-01T09:28:15;17.03;;;9.80;;
19016;SDS011;9641;51.494;6.670;2023-04-01T09:30:48;101.07;;;35.43;;
19016;SDS011;9641;51.494;6.670;2023-04-01T09:33:38;18.00;;;9.80;;
19016;SDS011;9641;51.494;6.670;2023-04-01T09:36:54;16.17;;;9.33;;
19016;SDS011;9641;51.494;6.670;2023-04-01T09:39:40;98.30;;;37.07;;
19016;SDS011;9641;51.494;6.670;2023-04-01T09:42:26;16.47;;;10.10;;
19016;SDS011;9641;51.494;6.670;2023-04-01T09:45:32;14.40;;;8.27;;
19016;SDS011;9641;51.494;6.670;2023-04-01T09:48:11;16.50;;;8.53;;
19016;SDS011;9641;51.494;6.670;2023-04-01T09:50:52;17.60;;;9.17;;
19016;SDS011;9641;51.494;6.670;2023-04-01T09:53:34;13.23;;;8.23;;
19016;SDS011;9641;51.494;6.670;2023-04-01T09:56:27;16.90;;;8.37;;
19016;SDS011;9641;51.494;6.670;2023-04-01T09:59:23;13.67;;;8.60;;
19016;SDS011;9641;51.494;6.670;2023-04-01T10:05:57;15.80;;;8.97;;
19016;SDS011;9641;51.494;6.670;2023-04-01T10:14:37;13.30;;;8.70;;
19016;SDS011;9641;51.494;6.670;2023-04-01T10:17:30;14.77;;;8.63;;
19016;SDS011;9641;51.494;6.670;2023-04-01T10:20:31;16.33;;;8.73;;
19016;SDS011;9641;51.494;6.670;2023-04-01T10:23:36;15.30;;;9.27;;
19016;SDS011;9641;51.494;6.670;2023-04-01T10:26:31;13.80;;;8.60;;
19016;SDS011;9641;51.494;6.670;2023-04-01T10:29:46;18.50;;;10.00;;
19016;SDS011;9641;51.494;6.670;2023-04-01T10:32:48;17.87;;;11.10;;
19016;SDS011;9641;51.494;6.670;2023-04-01T10:48:48;18.13;;;10.87;;
19016;SDS011;9641;51.494;6.670;2023-04-01T10:51:45;16.97;;;11.33;;
19016;SDS011;9641;51.494;6.670;2023-04-01T10:54:58;21.87;;;11.67;;
19016;SDS011;9641;51.494;6.670;2023-04-01T10:58:28;16.27;;;9.50;;
19016;SDS011;9641;51.494;6.670;2023-04-01T11:01:44;17.33;;;10.90;;
19016;SDS011;9641;51.494;6.670;2023-04-01T11:11:55;19.10;;;11.60;;
19016;SDS011;9641;51.494;6.670;2023-04-01T11:18:04;17.83;;;10.90;;
19016;SDS011;9641;51.494;6.670;2023-04-01T11:23:50;18.33;;;12.23;;
19016;SDS011;9641;51.494;6.670;2023-04-01T11:26:32;21.30;;;11.30;;
19016;SDS011;9641;51.494;6.670;2023-04-01T11:29:36;21.37;;;11.97;;
19016;SDS011;9641;51.494;6.670;2023-04-01T11:32:34;20.77;;;11.60;;
19016;SDS011;9641;51.494;6.670;2023-04-01T11:38:18;21.77;;;11.97;;
19016;SDS011;9641;51.494;6.670;2023-04-01T11:40:58;18.97;;;11.80;;
19016;SDS011;9641;51.494;6.670;2023-04-01T11:43:55;17.80;;;11.00;;
19016;SDS011;9641;51.494;6.670;2023-04-01T11:46:46;19.80;;;11.77;;
19016;SDS011;9641;51.494;6.670;2023-04-01T11:52:36;18.47;;;11.00;;
19016;SDS011;9641;51.494;6.670;2023-04-01T11:55:19;20.37;;;11.80;;
19016;SDS011;9641;51.494;6.670;2023-04-01T11:58:11;18.07;;;11.13;;
19016;SDS011;9641;51.494;6.670;2023-04-01T12:04:00;18.80;;;11.27;;
19016;SDS011;9641;51.494;6.670;2023-04-01T12:06:48;19.30;;;12.80;;
19016;SDS011;9641;51.494;6.670;2023-04-01T12:09:22;19.27;;;12.20;;
19016;SDS011;9641;51.494;6.670;2023-04-01T12:11:59;18.80;;;12.87;;
19016;SDS011;9641;51.494;6.670;2023-04-01T12:14:38;17.63;;;11.17;;
19016;SDS011;9641;51.494;6.670;2023-04-01T12:17:14;16.77;;;12.20;;
19016;SDS011;9641;51.494;6.670;2023-04-01T12:19:48;18.00;;;12.10;;
19016;SDS011;9641;51.494;6.670;2023-04-01T12:22:24;18.00;;;12.63;;
19016;SDS011;9641;51.494;6.670;2023-04-01T12:25:04;19.50;;;12.57;;
19016;SDS011;9641;51.494;6.670;2023-04-01T12:27:43;18.33;;;12.47;;
19016;SDS011;9641;51.494;6.670;2023-04-01T12:30:21;16.27;;;11.97;;
19016;SDS011;9641;51.494;6.670;2023-04-01T12:33:00;19.00;;;12.70;;
19016;SDS011;9641;51.494;6.670;2023-04-01T12:35:41;21.50;;;11.80;;
19016;SDS011;9641;51.494;6.670;2023-04-01T12:38:31;18.03;;;11.97;;
19016;SDS011;9641;51.494;6.670;2023-04-01T12:41:09;19.73;;;11.03;;
19016;SDS011;9641;51.494;6.670;2023-04-01T12:43:54;22.87;;;12.53;;
19016;SDS011;9641;51.494;6.670;2023-04-01T12:46:49;15.57;;;9.47;;
19016;SDS011;9641;51.494;6.670;2023-04-01T12:49:44;18.57;;;11.07;;
19016;SDS011;9641;51.494;6.670;2023-04-01T12:52:25;17.57;;;10.83;;
19016;SDS011;9641;51.494;6.670;2023-04-01T12:55:25;17.40;;;11.53;;
19016;SDS011;9641;51.494;6.670;2023-04-01T12:58:10;18.07;;;10.70;;
19016;SDS011;9641;51.494;6.670;2023-04-01T13:00:54;17.43;;;11.13;;
19016;SDS011;9641;51.494;6.670;2023-04-01T13:03:36;14.80;;;9.50;;
19016;SDS011;9641;51.494;6.670;2023-04-01T13:06:19;15.93;;;10.00;;
19016;SDS011;9641;51.494;6.670;2023-04-01T13:08:55;20.40;;;11.90;;
19016;SDS011;9641;51.494;6.670;2023-04-01T13:11:31;14.23;;;9.63;;
19016;SDS011;9641;51.494;6.670;2023-04-01T13:14:23;15.47;;;10.73;;
19016;SDS011;9641;51.494;6.670;2023-04-01T13:17:12;17.30;;;10.83;;
19016;SDS011;9641;51.494;6.670;2023-04-01T13:19:45;18.63;;;10.93;;
19016;SDS011;9641;51.494;6.670;2023-04-01T13:22:18;16.30;;;10.37;;
19016;SDS011;9641;51.494;6.670;2023-04-01T13:24:53;15.23;;;9.73;;
19016;SDS011;9641;51.494;6.670;2023-04-01T13:27:29;15.07;;;10.13;;
19016;SDS011;9641;51.494;6.670;2023-04-01T13:30:11;16.70;;;10.27;;
19016;SDS011;9641;51.494;6.670;2023-04-01T13:32:54;16.13;;;10.10;;
19016;SDS011;9641;51.494;6.670;2023-04-01T13:35:29;17.53;;;9.77;;
19016;SDS011;9641;51.494;6.670;2023-04-01T13:40:58;17.37;;;10.07;;
19016;SDS011;9641;51.494;6.670;2023-04-01T13:43:34;17.27;;;9.93;;
19016;SDS011;9641;51.494;6.670;2023-04-01T13:46:16;21.10;;;12.10;;
19016;SDS011;9641;51.494;6.670;2023-04-01T13:49:03;21.60;;;11.00;;
19016;SDS011;9641;51.494;6.670;2023-04-01T13:54:55;19.17;;;10.07;;
19016;SDS011;9641;51.494;6.670;2023-04-01T13:57:48;17.90;;;10.60;;
19016;SDS011;9641;51.494;6.670;2023-04-01T14:00:35;20.60;;;10.30;;
19016;SDS011;9641;51.494;6.670;2023-04-01T14:03:21;21.10;;;11.00;;
19016;SDS011;9641;51.494;6.670;2023-04-01T14:05:59;18.53;;;12.03;;
19016;SDS011;9641;51.494;6.670;2023-04-01T14:08:52;17.03;;;11.50;;
19016;SDS011;9641;51.494;6.670;2023-04-01T14:11:35;18.73;;;11.40;;
19016;SDS011;9641;51.494;6.670;2023-04-01T14:14:08;19.27;;;11.83;;
19016;SDS011;9641;51.494;6.670;2023-04-01T14:17:00;17.93;;;9.60;;
19016;SDS011;9641;51.494;6.670;2023-04-01T14:22:44;15.43;;;9.57;;
19016;SDS011;9641;51.494;6.670;2023-04-01T14:25:30;15.80;;;9.47;;
19016;SDS011;9641;51.494;6.670;2023-04-01T14:28:12;14.23;;;8.83;;
19016;SDS011;9641;51.494;6.670;2023-04-01T14:30:51;14.57;;;9.50;;
19016;SDS011;9641;51.494;6.670;2023-04-01T14:33:33;16.23;;;9.93;;
19016;SDS011;9641;51.494;6.670;2023-04-01T14:36:27;18.40;;;10.73;;
19016;SDS011;9641;51.494;6.670;2023-04-01T14:39:07;19.00;;;11.17;;
19016;SDS011;9641;51.494;6.670;2023-04-01T14:41:48;17.20;;;10.50;;
19016;SDS011;9641;51.494;6.670;2023-04-01T14:44:48;17.03;;;10.87;;
19016;SDS011;9641;51.494;6.670;2023-04-01T14:47:42;15.97;;;10.07;;
19016;SDS011;9641;51.494;6.670;2023-04-01T14:50:14;16.97;;;10.67;;
19016;SDS011;9641;51.494;6.670;2023-04-01T14:52:46;15.53;;;9.80;;
19016;SDS011;9641;51.494;6.670;2023-04-01T14:55:27;21.33;;;11.73;;
19016;SDS011;9641;51.494;6.670;2023-04-01T14:58:00;21.17;;;10.60;;
19016;SDS011;9641;51.494;6.670;2023-04-01T15:00:41;20.97;;;10.97;;
19016;SDS011;9641;51.494;6.670;2023-04-01T15:03:14;21.57;;;12.40;;
19016;SDS011;9641;51.494;6.670;2023-04-01T15:05:49;16.23;;;10.50;;
19016;SDS011;9641;51.494;6.670;2023-04-01T15:08:21;15.93;;;10.43;;
19016;SDS011;9641;51.494;6.670;2023-04-01T15:10:53;15.57;;;10.53;;
19016;SDS011;9641;51.494;6.670;2023-04-01T15:13:36;17.53;;;10.00;;
19016;SDS011;9641;51.494;6.670;2023-04-01T15:16:24;16.47;;;9.87;;
19016;SDS011;9641;51.494;6.670;2023-04-01T15:19:00;17.87;;;11.27;;
19016;SDS011;9641;51.494;6.670;2023-04-01T15:21:50;17.47;;;10.43;;
19016;SDS011;9641;51.494;6.670;2023-04-01T15:24:46;14.03;;;9.77;;
19016;SDS011;9641;51.494;6.670;2023-04-01T15:27:16;17.90;;;11.03;;
19016;SDS011;9641;51.494;6.670;2023-04-01T15:30:04;15.10;;;10.23;;
19016;SDS011;9641;51.494;6.670;2023-04-01T15:32:46;14.00;;;10.10;;
19016;SDS011;9641;51.494;6.670;2023-04-01T15:35:25;15.83;;;10.27;;
19016;SDS011;9641;51.494;6.670;2023-04-01T15:38:05;15.50;;;9.83;;
19016;SDS011;9641;51.494;6.670;2023-04-01T15:40:40;14.37;;;9.70;;
19016;SDS011;9641;51.494;6.670;2023-04-01T15:43:16;14.97;;;9.80;;
19016;SDS011;9641;51.494;6.670;2023-04-01T15:45:55;16.87;;;10.83;;
19016;SDS011;9641;51.494;6.670;2023-04-01T15:48:45;15.17;;;10.40;;
19016;SDS011;9641;51.494;6.670;2023-04-01T15:51:36;14.40;;;9.97;;
19016;SDS011;9641;51.494;6.670;2023-04-01T15:54:19;16.00;;;10.33;;
19016;SDS011;9641;51.494;6.670;2023-04-01T15:57:02;14.77;;;9.60;;
19016;SDS011;9641;51.494;6.670;2023-04-01T15:59:47;14.83;;;10.20;;
19016;SDS011;9641;51.494;6.670;2023-04-01T16:02:39;14.30;;;9.40;;
19016;SDS011;9641;51.494;6.670;2023-04-01T16:05:20;15.30;;;8.97;;
19016;SDS011;9641;51.494;6.670;2023-04-01T16:11:11;15.30;;;10.00;;
19016;SDS011;9641;51.494;6.670;2023-04-01T16:13:48;18.50;;;9.53;;
19016;SDS011;9641;51.494;6.670;2023-04-01T16:16:29;12.33;;;8.93;;
19016;SDS011;9641;51.494;6.670;2023-04-01T16:19:12;12.53;;;9.17;;
19016;SDS011;9641;51.494;6.670;2023-04-01T16:22:09;11.60;;;8.23;;
19016;SDS011;9641;51.494;6.670;2023-04-01T16:24:59;13.10;;;9.03;;
19016;SDS011;9641;51.494;6.670;2023-04-01T16:27:58;13.60;;;9.60;;
19016;SDS011;9641;51.494;6.670;2023-04-01T16:30:48;14.70;;;9.17;;
19016;SDS011;9641;51.494;6.670;2023-04-01T16:33:24;13.77;;;9.20;;
19016;SDS011;9641;51.494;6.670;2023-04-01T16:36:05;11.97;;;8.43;;
19016;SDS011;9641;51.494;6.670;2023-04-01T16:38:38;11.47;;;8.00;;
19016;SDS011;9641;51.494;6.670;2023-04-01T16:41:14;14.57;;;9.10;;
19016;SDS011;9641;51.494;6.670;2023-04-01T16:43:44;13.37;;;8.43;;
19016;SDS011;9641;51.494;6.670;2023-04-01T16:46:22;12.53;;;7.90;;
19016;SDS011;9641;51.494;6.670;2023-04-01T16:48:58;13.77;;;8.60;;
19016;SDS011;9641;51.494;6.670;2023-04-01T16:51:37;12.63;;;8.50;;
19016;SDS011;9641;51.494;6.670;2023-04-01T16:54:13;13.43;;;8.60;;
19016;SDS011;9641;51.494;6.670;2023-04-01T16:56:45;13.27;;;8.70;;
19016;SDS011;9641;51.494;6.670;2023-04-01T16:59:18;13.90;;;8.63;;
19016;SDS011;9641;51.494;6.670;2023-04-01T17:01:52;15.40;;;9.17;;
19016;SDS011;9641;51.494;6.670;2023-04-01T17:04:24;14.03;;;9.23;;
19016;SDS011;9641;51.494;6.670;2023-04-01T17:06:59;15.67;;;10.27;;
19016;SDS011;9641;51.494;6.670;2023-04-01T17:09:40;16.90;;;8.93;;
19016;SDS011;9641;51.494;6.670;2023-04-01T17:12:19;14.33;;;9.20;;